createdAt,value
2022-11-02T00:00:31.908Z,95187.34
2022-11-02T00:03:00.347Z,95195.53
2022-11-02T00:05:28.406Z,95192.28
2022-11-02T00:07:58.756Z,95185.78
2022-11-02T00:10:26.717Z,95185.78
2022-11-02T00:12:54.579Z,95187.91
2022-11-02T00:15:27.787Z,95191.38
2022-11-02T00:17:59.644Z,95184.88
2022-11-02T00:20:27.793Z,95187.00
2022-11-02T00:22:58.714Z,95189.63
2022-11-02T00:25:28.246Z,95180.66
2022-11-02T00:27:56.131Z,95185.44
2022-11-02T00:30:25.505Z,95182.03
2022-11-02T00:32:53.344Z,95185.16
2022-11-02T00:35:21.286Z,95184.34
2022-11-02T00:37:49.161Z,95180.91
2022-11-02T00:40:17.358Z,95184.66
2022-11-02T00:42:45.239Z,95177.50
2022-11-02T00:45:13.103Z,95175.91
2022-11-02T00:47:42.467Z,95164.53
2022-11-02T00:50:11.310Z,95164.22
2022-11-02T00:52:40.406Z,95172.34
2022-11-02T00:55:10.308Z,95164.09
2022-11-02T00:57:40.246Z,95176.28
2022-11-02T01:00:10.442Z,95179.56
2022-11-02T01:02:39.015Z,95177.59
2022-11-02T01:05:09.917Z,95173.38
2022-11-02T01:07:37.987Z,95166.75
2022-11-02T01:10:06.622Z,95163.81
2022-11-02T01:12:34.482Z,95176.50
2022-11-02T01:15:03.411Z,95175.88
2022-11-02T01:17:31.315Z,95178.94
2022-11-02T01:19:59.291Z,95186.59
2022-11-02T01:22:28.533Z,95175.66
2022-11-02T01:24:56.589Z,95173.88
2022-11-02T01:27:24.755Z,95166.72
2022-11-02T01:29:52.751Z,95168.81
2022-11-02T01:32:20.629Z,95163.47
2022-11-02T01:34:48.554Z,95163.59
2022-11-02T01:37:16.485Z,95160.50
2022-11-02T01:39:45.699Z,95159.22
2022-11-02T01:42:21.170Z,95159.88
2022-11-02T01:44:49.409Z,95154.19
2022-11-02T01:47:22.604Z,95149.97
2022-11-02T01:49:54.550Z,95146.72
2022-11-02T01:52:27.405Z,95141.84
2022-11-02T01:55:00.509Z,95151.31
2022-11-02T01:57:29.794Z,95149.34
2022-11-02T02:00:03.422Z,95147.56
2022-11-02T02:02:31.377Z,95144.47
2022-11-02T02:05:05.003Z,95138.94
2022-11-02T02:07:36.250Z,95140.09
2022-11-02T02:10:06.481Z,95146.88
2022-11-02T02:12:36.215Z,95137.94
2022-11-02T02:15:04.524Z,95149.03
2022-11-02T02:17:41.679Z,95144.16
2022-11-02T02:20:19.048Z,95135.03
2022-11-02T02:23:14.633Z,95128.34
2022-11-02T02:26:02.220Z,95134.53
2022-11-02T02:28:39.878Z,95132.88
2022-11-02T02:31:12.965Z,95128.78
2022-11-02T02:33:49.213Z,95126.84
2022-11-02T02:36:23.416Z,95129.47
2022-11-02T02:39:01.081Z,95135.78
2022-11-02T02:41:38.052Z,95136.25
2022-11-02T02:44:11.993Z,95142.41
2022-11-02T02:46:46.821Z,95142.13
2022-11-02T02:49:19.241Z,95136.13
2022-11-02T02:51:48.321Z,95141.44
2022-11-02T02:54:21.509Z,95129.16
2022-11-02T02:56:54.240Z,95132.22
2022-11-02T02:59:27.144Z,95134.78
2022-11-02T03:01:57.158Z,95130.16
2022-11-02T03:04:27.239Z,95131.97
2022-11-02T03:06:59.621Z,95133.53
2022-11-02T03:09:35.858Z,95139.25
2022-11-02T03:12:14.963Z,95143.13
2022-11-02T03:14:54.875Z,95135.94
2022-11-02T03:17:31.616Z,95125.16
2022-11-02T03:20:06.541Z,95138.38
2022-11-02T03:22:41.231Z,95140.16
2022-11-02T03:25:17.788Z,95134.69
2022-11-02T03:27:54.327Z,95128.38
2022-11-02T03:30:26.111Z,95127.38
2022-11-02T03:33:02.361Z,95128.84
2022-11-02T03:35:36.850Z,95130.66
2022-11-02T03:38:08.489Z,95129.22
2022-11-02T03:40:43.767Z,95137.28
2022-11-02T03:43:13.269Z,95098.00
2022-11-02T03:45:46.574Z,95119.75
2022-11-02T03:48:16.283Z,95121.69
2022-11-02T03:50:47.892Z,95125.72
2022-11-02T03:53:23.932Z,95116.31
2022-11-02T03:56:02.592Z,95126.69
2022-11-02T03:58:31.086Z,95119.75
2022-11-02T04:01:04.461Z,95119.69
2022-11-02T04:03:37.917Z,95120.44
2022-11-02T04:06:05.932Z,95112.47
2022-11-02T04:08:37.237Z,95117.44
2022-11-02T04:11:24.703Z,95121.88
2022-11-02T04:14:10.095Z,95118.28
2022-11-02T04:16:39.543Z,95111.16
2022-11-02T04:19:25.321Z,95121.59
2022-11-02T04:22:10.568Z,95117.22
2022-11-02T04:24:55.654Z,95116.69
2022-11-02T04:27:23.523Z,95118.63
2022-11-02T04:29:51.454Z,95123.75
2022-11-02T04:32:40.986Z,95116.88
2022-11-02T04:35:11.656Z,95120.56
2022-11-02T04:37:57.984Z,95117.63
2022-11-02T04:40:25.941Z,95124.06
2022-11-02T04:42:53.942Z,95119.69
2022-11-02T04:45:21.823Z,95125.09
2022-11-02T04:47:52.234Z,95123.69
2022-11-02T04:50:20.369Z,95117.41
2022-11-02T04:52:48.234Z,95119.22
2022-11-02T04:55:16.212Z,95121.50
2022-11-02T04:57:46.763Z,95120.91
2022-11-02T05:00:15.938Z,95129.38
2022-11-02T05:02:48.057Z,95122.25
2022-11-02T05:05:18.507Z,95128.34
2022-11-02T05:07:46.504Z,95132.94
2022-11-02T05:10:14.628Z,95128.81
2022-11-02T05:12:42.527Z,95136.28
2022-11-02T05:15:11.074Z,95134.47
2022-11-02T05:17:39.104Z,95131.53
2022-11-02T05:20:08.780Z,95136.13
2022-11-02T05:22:38.261Z,95138.44
2022-11-02T05:25:06.765Z,95131.53
2022-11-02T05:27:34.691Z,95149.81
2022-11-02T05:30:02.593Z,95146.78
2022-11-02T05:32:30.545Z,95147.94
2022-11-02T05:34:58.439Z,95158.25
2022-11-02T05:37:26.420Z,95161.19
2022-11-02T05:39:55.670Z,95155.56
2022-11-02T05:42:23.548Z,95166.09
2022-11-02T05:44:51.414Z,95163.19
2022-11-02T05:47:19.351Z,95163.50
2022-11-02T05:49:47.211Z,95176.00
2022-11-02T05:52:15.475Z,95177.94
2022-11-02T05:54:43.439Z,95191.41
2022-11-02T05:57:12.688Z,95187.81
2022-11-02T05:59:42.687Z,95182.41
2022-11-02T06:02:13.028Z,95187.75
2022-11-02T06:04:40.992Z,95193.97
2022-11-02T06:07:11.228Z,95190.94
2022-11-02T06:09:39.150Z,95188.47
2022-11-02T06:12:07.859Z,95199.56
2022-11-02T06:14:37.130Z,95192.75
2022-11-02T06:17:05.066Z,95191.31
2022-11-02T06:19:33.049Z,95184.09
2022-11-02T06:22:02.170Z,95187.88
2022-11-02T06:24:30.150Z,95192.63
2022-11-02T06:26:58.357Z,95188.44
2022-11-02T06:29:26.370Z,95201.13
2022-11-02T06:31:57.321Z,95194.81
2022-11-02T06:34:25.212Z,95201.81
2022-11-02T06:36:53.870Z,95207.97
2022-11-02T06:39:21.873Z,95205.19
2022-11-02T06:41:49.918Z,95202.00
2022-11-02T06:44:18.065Z,95194.88
2022-11-02T06:46:46.833Z,95192.81
2022-11-02T06:49:18.030Z,95198.03
2022-11-02T06:51:45.948Z,95197.94
2022-11-02T06:54:13.856Z,95204.34
2022-11-02T06:56:42.264Z,95202.38
2022-11-02T06:59:10.156Z,95203.88
2022-11-02T07:01:38.268Z,95199.03
2022-11-02T07:04:06.468Z,95199.41
2022-11-02T07:06:35.713Z,95198.13
2022-11-02T07:09:04.071Z,95196.66
2022-11-02T07:11:33.267Z,95196.66
2022-11-02T07:14:01.544Z,95200.59
2022-11-02T07:16:29.515Z,95202.22
2022-11-02T07:18:58.937Z,95196.84
2022-11-02T07:21:26.865Z,95201.09
2022-11-02T07:23:56.212Z,95201.41
2022-11-02T07:26:24.105Z,95201.25
2022-11-02T07:28:56.778Z,95199.28
2022-11-02T07:31:27.343Z,95199.09
2022-11-02T07:33:55.334Z,95201.38
2022-11-02T07:36:23.657Z,95203.94
2022-11-02T07:38:51.618Z,95178.41
2022-11-02T07:41:20.951Z,95193.94
2022-11-02T07:43:48.858Z,95189.88
2022-11-02T07:46:16.807Z,95193.22
2022-11-02T07:48:46.291Z,95198.84
2022-11-02T07:51:14.214Z,95206.16
2022-11-02T07:53:42.161Z,95204.75
2022-11-02T07:56:10.127Z,95203.38
2022-11-02T07:58:47.201Z,95202.63
2022-11-02T08:01:15.157Z,95199.78
2022-11-02T08:03:43.263Z,95190.00
2022-11-02T08:06:11.278Z,95187.00
2022-11-02T08:08:39.196Z,95193.28
2022-11-02T08:11:10.194Z,95189.22
2022-11-02T08:13:40.059Z,95195.38
2022-11-02T08:16:08.432Z,95181.78
2022-11-02T08:18:36.314Z,95190.06
2022-11-02T08:21:05.422Z,95172.44
2022-11-02T08:23:33.795Z,95183.16
2022-11-02T08:26:01.689Z,95183.59
2022-11-02T08:28:32.469Z,95172.16
2022-11-02T08:31:02.032Z,95176.47
2022-11-02T08:33:30.489Z,95172.75
2022-11-02T08:36:03.668Z,95173.66
2022-11-02T08:38:31.884Z,95173.53
2022-11-02T08:40:59.817Z,95168.91
2022-11-02T08:43:27.863Z,95172.84
2022-11-02T08:46:16.505Z,95171.56
2022-11-02T08:48:46.815Z,95167.44
2022-11-02T08:51:14.801Z,95166.13
2022-11-02T08:53:47.067Z,95168.44
2022-11-02T08:56:18.470Z,95165.09
2022-11-02T08:58:46.360Z,95165.47
2022-11-02T09:01:14.680Z,95152.88
2022-11-02T09:03:42.620Z,95157.03
2022-11-02T09:06:12.003Z,95152.25
2022-11-02T09:08:40.090Z,95153.19
2022-11-02T09:11:08.344Z,95136.53
2022-11-02T09:13:36.348Z,95155.66
2022-11-02T09:16:04.280Z,95147.75
2022-11-02T09:18:32.263Z,95148.78
2022-11-02T09:21:03.759Z,95141.13
2022-11-02T09:23:33.346Z,95136.88
2022-11-02T09:26:01.637Z,95134.16
2022-11-02T09:28:30.040Z,95120.84
2022-11-02T09:30:58.750Z,95129.63
2022-11-02T09:33:26.694Z,95130.47
2022-11-02T09:35:54.949Z,95127.75
2022-11-02T09:38:24.224Z,95112.97
2022-11-02T09:41:02.438Z,95116.78
2022-11-02T09:43:41.386Z,95115.97
2022-11-02T09:46:14.049Z,95106.59
2022-11-02T09:48:44.018Z,95109.88
2022-11-02T09:51:15.583Z,95107.72
2022-11-02T09:53:52.188Z,95087.63
2022-11-02T09:56:21.629Z,95093.03
2022-11-02T09:58:56.561Z,95097.47
2022-11-02T10:01:35.838Z,95086.66
2022-11-02T10:04:34.109Z,95074.44
2022-11-02T10:07:11.815Z,95082.94
2022-11-02T10:09:45.737Z,95067.31
2022-11-02T10:12:18.137Z,95068.41
2022-11-02T10:14:58.566Z,95056.97
2022-11-02T10:17:29.155Z,95060.56
2022-11-02T10:19:59.365Z,95065.66
2022-11-02T10:22:32.834Z,95064.09
2022-11-02T10:25:05.941Z,95060.66
2022-11-02T10:27:39.631Z,95054.88
2022-11-02T10:30:14.451Z,95053.91
2022-11-02T10:32:45.136Z,95055.06
2022-11-02T10:35:51.418Z,95040.13
2022-11-02T10:38:25.754Z,95037.28
2022-11-02T10:41:11.065Z,95043.59
2022-11-02T10:43:56.219Z,95038.03
2022-11-02T10:46:39.157Z,95027.41
2022-11-02T10:49:18.240Z,95023.09
2022-11-02T10:51:46.596Z,95020.75
2022-11-02T10:54:20.632Z,95016.50
2022-11-02T10:56:53.419Z,95018.09
2022-11-02T10:59:25.799Z,95012.97
2022-11-02T11:02:07.854Z,95007.38
2022-11-02T11:04:36.897Z,95006.50
2022-11-02T11:07:08.073Z,95006.44
2022-11-02T11:09:47.558Z,95001.41
2022-11-02T11:12:23.059Z,94997.69
2022-11-02T11:20:36.590Z,94982.50
2022-11-02T11:23:20.551Z,94979.03
2022-11-02T11:25:57.723Z,94976.38
2022-11-02T11:28:28.961Z,94969.38
2022-11-02T11:31:07.586Z,94974.31
2022-11-02T11:33:44.479Z,94968.69
2022-11-02T11:36:21.281Z,94963.13
2022-11-02T11:38:50.983Z,94953.63
2022-11-02T11:41:19.604Z,94960.72
2022-11-02T11:43:50.490Z,94954.19
2022-11-02T11:46:20.559Z,94950.47
2022-11-02T11:48:52.165Z,94959.84
2022-11-02T11:51:30.929Z,94936.81
2022-11-02T11:54:19.360Z,94942.53
2022-11-02T11:56:47.455Z,94929.16
2022-11-02T11:59:22.343Z,94931.59
2022-11-02T12:01:54.736Z,94935.03
2022-11-02T12:04:44.840Z,94940.63
2022-11-02T12:07:41.109Z,94929.03
2022-11-02T12:10:16.649Z,94931.44
2022-11-02T12:12:59.371Z,94920.31
2022-11-02T12:15:43.423Z,94913.59
2022-11-02T12:18:35.725Z,94912.59
2022-11-02T12:21:18.552Z,94910.16
2022-11-02T12:24:04.073Z,94907.53
2022-11-02T12:26:44.058Z,94899.06
2022-11-02T12:29:29.532Z,94896.72
2022-11-02T12:32:10.139Z,94902.97
2022-11-02T12:35:27.321Z,94901.25
2022-11-02T12:38:06.449Z,94898.72
2022-11-02T12:40:46.531Z,94892.38
2022-11-02T12:43:32.101Z,94883.50
2022-11-02T12:46:05.395Z,94881.13
2022-11-02T12:48:49.045Z,94898.81
2022-11-02T12:51:23.344Z,94877.22
2022-11-02T12:53:57.215Z,94889.50
2022-11-02T12:56:32.280Z,94884.09
2022-11-02T12:59:01.414Z,94875.00
2022-11-02T13:01:36.532Z,94872.25
2022-11-02T13:04:13.813Z,94881.00
2022-11-02T13:06:46.967Z,94873.78
2022-11-02T13:09:23.054Z,94877.50
2022-11-02T13:11:58.696Z,94879.34
2022-11-02T13:14:31.160Z,94866.31
2022-11-02T13:17:04.474Z,94871.09
2022-11-02T13:19:39.074Z,94869.19
2022-11-02T13:22:11.870Z,94867.22
2022-11-02T13:24:45.415Z,94877.91
2022-11-02T13:27:37.130Z,94868.25
2022-11-02T13:30:14.627Z,94872.75
2022-11-02T13:32:46.562Z,94873.00
2022-11-02T13:35:20.326Z,94866.53
2022-11-02T13:37:54.860Z,94864.28
2022-11-02T13:40:26.625Z,94870.03
2022-11-02T13:43:12.649Z,94856.72
2022-11-02T13:45:54.507Z,94860.06
2022-11-02T13:48:40.319Z,94858.25
2022-11-02T13:51:14.679Z,94859.41
2022-11-02T13:53:53.635Z,94860.31
2022-11-02T13:56:26.972Z,94861.13
2022-11-02T13:58:59.218Z,94851.34
2022-11-02T14:01:29.743Z,94847.88
2022-11-02T14:04:03.122Z,94851.00
2022-11-02T14:06:34.640Z,94860.13
2022-11-02T14:09:08.529Z,94863.66
2022-11-02T14:11:47.270Z,94852.16
2022-11-02T14:14:26.436Z,94856.72
2022-11-02T14:17:14.277Z,94856.97
2022-11-02T14:20:04.492Z,94859.66
2022-11-02T14:22:33.271Z,94851.63
2022-11-02T14:25:19.619Z,94859.66
2022-11-02T14:27:47.703Z,94858.84
2022-11-02T14:30:48.891Z,94870.84
2022-11-02T14:33:54.294Z,94866.25
2022-11-02T14:36:40.444Z,94856.09
2022-11-02T14:39:18.743Z,94862.38
2022-11-02T14:42:12.937Z,94868.63
2022-11-02T14:45:06.263Z,94873.78
2022-11-02T14:47:38.220Z,94861.78
2022-11-02T14:50:14.579Z,94872.25
2022-11-02T14:52:45.076Z,94869.59
2022-11-02T14:55:24.896Z,94881.88
2022-11-02T14:57:58.110Z,94883.25
2022-11-02T15:00:31.942Z,94861.47
2022-11-02T15:03:00.442Z,94873.94
2022-11-02T15:05:32.526Z,94879.91
2022-11-02T15:08:04.886Z,94879.09
2022-11-02T15:10:53.778Z,94890.13
2022-11-02T15:13:37.465Z,94885.72
2022-11-02T15:16:24.666Z,94888.00
2022-11-02T15:18:53.067Z,94886.25
2022-11-02T15:21:30.671Z,94887.44
2022-11-02T15:24:20.859Z,94889.44
2022-11-02T15:26:51.707Z,94885.63
2022-11-02T15:29:40.302Z,94892.09
2022-11-02T15:32:19.727Z,94895.91
2022-11-02T15:34:52.532Z,94899.84
2022-11-02T15:37:24.119Z,94900.31
2022-11-02T15:39:56.126Z,94897.59
2022-11-02T15:42:37.343Z,94904.16
2022-11-02T15:45:47.875Z,94904.72
2022-11-02T15:48:31.958Z,94912.19
2022-11-02T15:51:08.166Z,94912.66
2022-11-02T15:53:53.499Z,94916.91
2022-11-02T15:56:37.163Z,94912.09
2022-11-02T15:59:38.404Z,94920.00
2022-11-02T16:02:26.595Z,94926.25
2022-11-02T16:04:57.212Z,94916.66
2022-11-02T16:07:33.515Z,94919.56
2022-11-02T16:10:14.442Z,94935.25
2022-11-02T16:12:42.743Z,94931.59
2022-11-02T16:15:16.155Z,94938.31
2022-11-02T16:17:50.061Z,94938.41
2022-11-02T16:20:20.627Z,94931.88
2022-11-02T16:22:57.024Z,94930.72
2022-11-02T16:25:38.528Z,94944.00
2022-11-02T16:28:21.051Z,94941.00
2022-11-02T16:31:16.132Z,94950.66
2022-11-02T16:33:52.794Z,94938.06
2022-11-02T16:36:23.863Z,94945.75
2022-11-02T16:39:00.670Z,94952.53
2022-11-02T16:41:32.347Z,94949.53
2022-11-02T16:44:04.164Z,94946.94
2022-11-02T16:46:42.106Z,94953.06
2022-11-02T16:49:18.601Z,94960.31
2022-11-02T16:51:51.606Z,94953.78
2022-11-02T16:54:27.830Z,94961.19
2022-11-02T16:56:58.411Z,94967.94
2022-11-02T16:59:26.961Z,94961.19
2022-11-02T17:02:00.118Z,94965.28
2022-11-02T17:04:32.936Z,94971.53
2022-11-02T17:07:17.742Z,94970.56
2022-11-02T17:09:55.623Z,94968.94
2022-11-02T17:12:34.038Z,94970.19
2022-11-02T17:15:04.624Z,94956.56
2022-11-02T17:17:37.394Z,94979.81
2022-11-02T17:20:18.867Z,94973.72
2022-11-02T17:22:53.180Z,94975.41
2022-11-02T17:25:23.521Z,94975.59
2022-11-02T17:27:52.571Z,94971.38
2022-11-02T17:30:46.861Z,94974.34
2022-11-02T17:33:25.888Z,94975.44
2022-11-02T17:35:56.590Z,94972.84
2022-11-02T17:38:27.886Z,94984.28
2022-11-02T17:40:56.401Z,94978.78
2022-11-02T17:43:23.973Z,94979.06
2022-11-02T17:45:56.997Z,94963.59
2022-11-02T17:48:25.621Z,94978.47
2022-11-02T17:50:56.458Z,94980.78
2022-11-02T17:53:25.385Z,94989.50
2022-11-02T17:55:55.790Z,94968.28
2022-11-02T17:58:23.753Z,94977.19
2022-11-02T18:00:54.128Z,94972.38
2022-11-02T18:03:25.504Z,94982.88
2022-11-02T18:06:00.338Z,94982.91
2022-11-02T18:08:28.686Z,94981.41
2022-11-02T18:10:56.712Z,94982.75
2022-11-02T18:13:25.760Z,94979.94
2022-11-02T18:15:53.668Z,94983.38
2022-11-02T18:18:22.110Z,94962.66
2022-11-02T18:20:52.502Z,94975.75
2022-11-02T18:23:22.136Z,94969.13
2022-11-02T18:25:52.780Z,94965.78
2022-11-02T18:28:23.714Z,94973.78
2022-11-02T18:30:51.793Z,94978.09
2022-11-02T18:33:20.836Z,94978.09
2022-11-02T18:35:50.178Z,94985.59
2022-11-02T18:38:18.194Z,94987.22
2022-11-02T18:40:47.732Z,94987.06
2022-11-02T18:43:15.706Z,94987.06
2022-11-02T18:45:43.839Z,94974.38
2022-11-02T18:48:12.233Z,94990.72
2022-11-02T18:50:40.875Z,94991.31
2022-11-02T18:53:08.792Z,94993.53
2022-11-02T18:55:39.585Z,94993.31
2022-11-02T18:58:11.172Z,94996.16
2022-11-02T19:00:40.271Z,94993.75
2022-11-02T19:03:08.476Z,95004.72
2022-11-02T19:05:54.863Z,95002.69
2022-11-02T19:08:40.232Z,94988.75
2022-11-02T19:11:08.871Z,94996.63
2022-11-02T19:13:38.544Z,95006.75
2022-11-02T19:16:07.472Z,95001.69
2022-11-02T19:18:35.543Z,95007.56
2022-11-02T19:21:03.519Z,95008.00
2022-11-02T19:23:31.526Z,95009.38
2022-11-02T19:25:59.651Z,95011.81
2022-11-02T19:28:27.613Z,95017.66
2022-11-02T19:30:57.114Z,95020.94
2022-11-02T19:33:25.052Z,95008.16
2022-11-02T19:35:56.276Z,95015.25
2022-11-02T19:38:24.661Z,95017.25
2022-11-02T19:41:01.405Z,95014.22
2022-11-02T19:43:29.580Z,95013.03
2022-11-02T19:46:03.207Z,95010.41
2022-11-02T19:48:32.549Z,95013.44
2022-11-02T19:51:13.411Z,95009.19
2022-11-02T19:53:47.129Z,95019.53
2022-11-02T19:56:16.361Z,95012.84
2022-11-02T19:58:46.072Z,95018.47
2022-11-02T20:01:17.490Z,95019.13
2022-11-02T20:03:47.330Z,95021.53
2022-11-02T20:06:18.206Z,95028.03
2022-11-02T20:08:46.179Z,95022.75
2022-11-02T20:11:15.454Z,95029.22
2022-11-02T20:13:45.158Z,95031.44
2022-11-02T20:16:16.168Z,95023.16
2022-11-02T20:18:45.733Z,95026.00
2022-11-02T20:21:15.539Z,95032.25
2022-11-02T20:23:44.168Z,95034.72
2022-11-02T20:26:14.216Z,95036.34
2022-11-02T20:28:44.684Z,95046.06
2022-11-02T20:31:15.297Z,95037.94
2022-11-02T20:33:45.024Z,95033.66
2022-11-02T20:36:13.350Z,95034.91
2022-11-02T20:38:41.502Z,95025.41
2022-11-02T20:41:11.280Z,95035.13
2022-11-02T20:43:40.889Z,95025.22
2022-11-02T20:46:35.839Z,95027.25
2022-11-02T20:49:08.561Z,95030.09
2022-11-02T20:51:48.391Z,95027.66
2022-11-02T20:54:18.379Z,95028.69
2022-11-02T20:56:47.364Z,95037.16
2022-11-02T20:59:15.715Z,95026.66
2022-11-02T21:01:43.933Z,95026.66
2022-11-02T21:04:19.901Z,95021.81
2022-11-02T21:06:48.629Z,95020.41
2022-11-02T21:09:16.671Z,95018.59
2022-11-02T21:12:01.802Z,95025.66
2022-11-02T21:14:29.747Z,95021.84
2022-11-02T21:16:58.701Z,95021.88
2022-11-02T21:19:27.990Z,95018.03
2022-11-02T21:21:59.668Z,95022.69
2022-11-02T21:24:28.481Z,95021.25
2022-11-02T21:26:56.412Z,95022.88
2022-11-02T21:29:24.442Z,95015.38
2022-11-02T21:31:52.773Z,95016.41
2022-11-02T21:34:21.022Z,95023.47
2022-11-02T21:36:50.337Z,95021.44
2022-11-02T21:39:18.241Z,95034.59
2022-11-02T21:41:46.162Z,95017.38
2022-11-02T21:44:15.139Z,95022.66
2022-11-02T21:46:43.095Z,95028.72
2022-11-02T21:49:11.067Z,95025.66
2022-11-02T21:51:40.494Z,95020.63
2022-11-02T21:54:10.155Z,95033.53
2022-11-02T21:56:38.435Z,95020.41
2022-11-02T21:59:07.092Z,95025.88
2022-11-02T22:01:49.132Z,95029.13
2022-11-02T22:04:25.454Z,95033.53
2022-11-02T22:06:53.880Z,95029.31
2022-11-02T22:09:23.379Z,95025.28
2022-11-02T22:12:13.407Z,95028.31
2022-11-02T22:14:42.328Z,95011.34
2022-11-02T22:17:21.853Z,95030.56
2022-11-02T22:19:50.532Z,95019.63
2022-11-02T22:22:18.684Z,95037.44
2022-11-02T22:24:49.945Z,95039.44
2022-11-02T22:27:18.120Z,95029.91
2022-11-02T22:29:49.049Z,95038.19
2022-11-02T22:32:17.318Z,95042.22
2022-11-02T22:34:45.189Z,95044.84
2022-11-02T22:37:30.459Z,95042.81
2022-11-02T22:39:59.720Z,95038.34
2022-11-02T22:42:29.950Z,95039.56
2022-11-02T22:44:58.598Z,95046.22
2022-11-02T22:47:26.628Z,95041.16
2022-11-02T22:49:54.528Z,95029.84
2022-11-02T22:52:22.440Z,95026.59
2022-11-02T22:54:50.722Z,95037.50
2022-11-02T22:57:19.991Z,95023.75
2022-11-02T22:59:47.927Z,95027.00
2022-11-02T23:02:16.013Z,95037.09
2022-11-02T23:04:43.948Z,95027.00
2022-11-02T23:07:11.975Z,95044.75
2022-11-02T23:09:39.941Z,95040.13
2022-11-02T23:12:07.149Z,95039.06
2022-11-02T23:14:36.452Z,95041.09
2022-11-02T23:17:04.447Z,95041.69
2022-11-02T23:19:31.782Z,95035.88
2022-11-02T23:22:18.372Z,95040.09
2022-11-02T23:25:05.242Z,95039.69
2022-11-02T23:27:34.270Z,95036.28
2022-11-02T23:30:22.180Z,95045.75
2022-11-02T23:32:50.983Z,95042.13
2022-11-02T23:35:36.575Z,95048.16
2022-11-02T23:38:05.964Z,95046.13
2022-11-02T23:40:34.261Z,95048.94
2022-11-02T23:58:32.259Z,95051.41
